Aviation Digital Data Service (ADDS)

Output produced by METARs form (1626 UTC 26 January 2015)
found at http://aviationweather.gov/adds/metars/
 
KGON 261435Z 2615/2712 04012KT 2SM -SN BR BKN030 
     FM261700 05013KT 2SM -SN BR BKN012 
     FM261800 06016G22KT 1SM -SN BR BKN007 
     FM262100 05019G27KT 3/4SM -SN BR BKN007 
     FM270100 03026G34KT 1/2SM SN FZFG VV005 
     FM270400 02030G40KT 1/4SM +SN FZFG VV003